sensor_id;sensor_type;location;lat;lon;timestamp;P1;durP1;ratioP1;P2;durP2;ratioP2
3916;SDS011;1973;50.518;7.318;2023-04-01T00:01:13;2.00;;;0.70;;
3916;SDS011;1973;50.518;7.318;2023-04-01T00:03:41;3.43;;;1.00;;
3916;SDS011;1973;50.518;7.318;2023-04-01T00:06:08;2.07;;;0.90;;
3916;SDS011;1973;50.518;7.318;2023-04-01T00:08:37;3.37;;;0.80;;
3916;SDS011;1973;50.518;7.318;2023-04-01T00:11:03;4.03;;;0.90;;
3916;SDS011;1973;50.518;7.318;2023-04-01T00:13:30;2.17;;;0.90;;
3916;SDS011;1973;50.518;7.318;2023-04-01T00:15:56;2.00;;;0.60;;
3916;SDS011;1973;50.518;7.318;2023-04-01T00:18:25;1.10;;;0.60;;
3916;SDS011;1973;50.518;7.318;2023-04-01T00:20:51;3.60;;;2.13;;
3916;SDS011;1973;50.518;7.318;2023-04-01T00:23:19;1.40;;;0.60;;
3916;SDS011;1973;50.518;7.318;2023-04-01T00:25:46;2.90;;;1.20;;
3916;SDS011;1973;50.518;7.318;2023-04-01T00:28:15;1.20;;;0.70;;
3916;SDS011;1973;50.518;7.318;2023-04-01T00:30:42;1.23;;;0.70;;
3916;SDS011;1973;50.518;7.318;2023-04-01T00:33:09;1.40;;;0.53;;
3916;SDS011;1973;50.518;7.318;2023-04-01T00:35:36;3.20;;;0.90;;
3916;SDS011;1973;50.518;7.318;2023-04-01T00:38:02;2.00;;;0.60;;
3916;SDS011;1973;50.518;7.318;2023-04-01T00:40:32;2.17;;;0.90;;
3916;SDS011;1973;50.518;7.318;2023-04-01T00:43:03;1.83;;;0.70;;
3916;SDS011;1973;50.518;7.318;2023-04-01T00:45:38;1.57;;;0.60;;
3916;SDS011;1973;50.518;7.318;2023-04-01T00:48:10;2.13;;;0.70;;
3916;SDS011;1973;50.518;7.318;2023-04-01T00:50:42;3.57;;;0.80;;
3916;SDS011;1973;50.518;7.318;2023-04-01T00:53:12;1.63;;;0.70;;
3916;SDS011;1973;50.518;7.318;2023-04-01T00:55:40;3.00;;;0.90;;
3916;SDS011;1973;50.518;7.318;2023-04-01T00:58:13;2.00;;;0.60;;
3916;SDS011;1973;50.518;7.318;2023-04-01T01:00:43;1.60;;;0.87;;
3916;SDS011;1973;50.518;7.318;2023-04-01T01:03:11;3.03;;;0.73;;
3916;SDS011;1973;50.518;7.318;2023-04-01T01:11:26;4.53;;;0.60;;
3916;SDS011;1973;50.518;7.318;2023-04-01T01:14:10;1.90;;;0.80;;
3916;SDS011;1973;50.518;7.318;2023-04-01T01:16:44;1.07;;;0.50;;
3916;SDS011;1973;50.518;7.318;2023-04-01T01:27:22;1.83;;;0.50;;
3916;SDS011;1973;50.518;7.318;2023-04-01T01:37:46;2.97;;;0.70;;
3916;SDS011;1973;50.518;7.318;2023-04-01T01:40:16;3.10;;;0.80;;
3916;SDS011;1973;50.518;7.318;2023-04-01T01:42:44;1.53;;;0.60;;
3916;SDS011;1973;50.518;7.318;2023-04-01T01:45:14;3.10;;;0.63;;
3916;SDS011;1973;50.518;7.318;2023-04-01T01:47:44;3.10;;;0.90;;
3916;SDS011;1973;50.518;7.318;2023-04-01T01:50:13;2.60;;;0.60;;
3916;SDS011;1973;50.518;7.318;2023-04-01T01:52:41;2.90;;;0.70;;
3916;SDS011;1973;50.518;7.318;2023-04-01T01:55:30;1.53;;;0.60;;
3916;SDS011;1973;50.518;7.318;2023-04-01T01:58:05;5.80;;;1.03;;
3916;SDS011;1973;50.518;7.318;2023-04-01T02:00:33;2.37;;;0.67;;
3916;SDS011;1973;50.518;7.318;2023-04-01T02:03:01;1.63;;;0.63;;
3916;SDS011;1973;50.518;7.318;2023-04-01T02:05:29;3.43;;;1.10;;
3916;SDS011;1973;50.518;7.318;2023-04-01T02:08:00;1.73;;;0.70;;
3916;SDS011;1973;50.518;7.318;2023-04-01T02:10:34;2.30;;;1.07;;
3916;SDS011;1973;50.518;7.318;2023-04-01T02:13:05;5.13;;;1.00;;
3916;SDS011;1973;50.518;7.318;2023-04-01T02:15:44;1.30;;;0.90;;
3916;SDS011;1973;50.518;7.318;2023-04-01T02:18:13;2.50;;;0.53;;
3916;SDS011;1973;50.518;7.318;2023-04-01T02:20:42;2.60;;;0.80;;
3916;SDS011;1973;50.518;7.318;2023-04-01T02:23:10;5.57;;;1.03;;
3916;SDS011;1973;50.518;7.318;2023-04-01T02:25:37;2.70;;;0.80;;
3916;SDS011;1973;50.518;7.318;2023-04-01T02:28:06;1.97;;;0.60;;
3916;SDS011;1973;50.518;7.318;2023-04-01T02:30:35;3.03;;;0.80;;
3916;SDS011;1973;50.518;7.318;2023-04-01T02:33:04;2.10;;;0.70;;
3916;SDS011;1973;50.518;7.318;2023-04-01T02:35:35;2.73;;;0.80;;
3916;SDS011;1973;50.518;7.318;2023-04-01T02:38:03;2.03;;;0.70;;
3916;SDS011;1973;50.518;7.318;2023-04-01T02:40:41;2.93;;;0.90;;
3916;SDS011;1973;50.518;7.318;2023-04-01T02:43:22;1.53;;;0.80;;
3916;SDS011;1973;50.518;7.318;2023-04-01T02:45:49;3.80;;;0.97;;
3916;SDS011;1973;50.518;7.318;2023-04-01T02:48:15;3.67;;;0.97;;
3916;SDS011;1973;50.518;7.318;2023-04-01T02:50:42;1.47;;;0.70;;
3916;SDS011;1973;50.518;7.318;2023-04-01T02:53:08;3.70;;;2.83;;
3916;SDS011;1973;50.518;7.318;2023-04-01T02:55:35;2.97;;;0.60;;
3916;SDS011;1973;50.518;7.318;2023-04-01T02:58:01;3.43;;;0.70;;
3916;SDS011;1973;50.518;7.318;2023-04-01T03:00:28;1.50;;;0.80;;
3916;SDS011;1973;50.518;7.318;2023-04-01T03:02:54;1.43;;;0.60;;
3916;SDS011;1973;50.518;7.318;2023-04-01T03:05:23;2.50;;;0.70;;
3916;SDS011;1973;50.518;7.318;2023-04-01T03:07:49;1.97;;;0.80;;
3916;SDS011;1973;50.518;7.318;2023-04-01T03:10:16;4.97;;;1.07;;
3916;SDS011;1973;50.518;7.318;2023-04-01T03:12:43;2.80;;;0.97;;
3916;SDS011;1973;50.518;7.318;2023-04-01T03:15:10;1.30;;;0.60;;
3916;SDS011;1973;50.518;7.318;2023-04-01T03:17:38;2.50;;;0.80;;
3916;SDS011;1973;50.518;7.318;2023-04-01T03:20:05;4.50;;;0.90;;
3916;SDS011;1973;50.518;7.318;2023-04-01T03:22:32;3.50;;;0.80;;
3916;SDS011;1973;50.518;7.318;2023-04-01T03:24:58;2.17;;;0.70;;
3916;SDS011;1973;50.518;7.318;2023-04-01T03:27:25;2.30;;;0.67;;
3916;SDS011;1973;50.518;7.318;2023-04-01T03:29:51;1.30;;;0.60;;
3916;SDS011;1973;50.518;7.318;2023-04-01T03:32:18;2.80;;;0.80;;
3916;SDS011;1973;50.518;7.318;2023-04-01T03:34:44;3.47;;;0.97;;
3916;SDS011;1973;50.518;7.318;2023-04-01T03:37:11;1.60;;;0.80;;
3916;SDS011;1973;50.518;7.318;2023-04-01T03:39:38;2.00;;;0.80;;
3916;SDS011;1973;50.518;7.318;2023-04-01T03:42:04;1.23;;;0.83;;
3916;SDS011;1973;50.518;7.318;2023-04-01T03:44:33;1.97;;;0.50;;
3916;SDS011;1973;50.518;7.318;2023-04-01T03:46:59;2.70;;;0.60;;
3916;SDS011;1973;50.518;7.318;2023-04-01T03:49:26;1.80;;;0.63;;
3916;SDS011;1973;50.518;7.318;2023-04-01T03:51:53;4.67;;;1.10;;
3916;SDS011;1973;50.518;7.318;2023-04-01T03:54:19;1.30;;;0.70;;
3916;SDS011;1973;50.518;7.318;2023-04-01T03:56:46;2.40;;;0.70;;
3916;SDS011;1973;50.518;7.318;2023-04-01T03:59:13;3.30;;;0.90;;
3916;SDS011;1973;50.518;7.318;2023-04-01T04:01:39;2.23;;;1.00;;
3916;SDS011;1973;50.518;7.318;2023-04-01T04:04:06;1.83;;;0.60;;
3916;SDS011;1973;50.518;7.318;2023-04-01T04:06:33;2.60;;;0.70;;
3916;SDS011;1973;50.518;7.318;2023-04-01T04:08:59;1.60;;;0.70;;
3916;SDS011;1973;50.518;7.318;2023-04-01T04:11:26;1.00;;;0.50;;
3916;SDS011;1973;50.518;7.318;2023-04-01T04:13:52;3.33;;;0.50;;
3916;SDS011;1973;50.518;7.318;2023-04-01T04:16:21;0.80;;;0.50;;
3916;SDS011;1973;50.518;7.318;2023-04-01T04:18:47;1.27;;;0.60;;
3916;SDS011;1973;50.518;7.318;2023-04-01T04:21:14;1.33;;;0.50;;
3916;SDS011;1973;50.518;7.318;2023-04-01T04:23:42;1.17;;;0.50;;
3916;SDS011;1973;50.518;7.318;2023-04-01T04:26:13;1.00;;;0.53;;
3916;SDS011;1973;50.518;7.318;2023-04-01T04:28:40;1.47;;;0.60;;
3916;SDS011;1973;50.518;7.318;2023-04-01T04:31:07;1.00;;;0.50;;
3916;SDS011;1973;50.518;7.318;2023-04-01T04:33:34;1.30;;;0.50;;
3916;SDS011;1973;50.518;7.318;2023-04-01T04:36:01;2.10;;;0.60;;
3916;SDS011;1973;50.518;7.318;2023-04-01T04:38:30;1.00;;;0.50;;
3916;SDS011;1973;50.518;7.318;2023-04-01T04:40:56;1.03;;;0.40;;
3916;SDS011;1973;50.518;7.318;2023-04-01T04:43:23;0.80;;;0.40;;
3916;SDS011;1973;50.518;7.318;2023-04-01T04:45:49;1.80;;;0.50;;
3916;SDS011;1973;50.518;7.318;2023-04-01T04:48:16;1.00;;;0.40;;
3916;SDS011;1973;50.518;7.318;2023-04-01T04:50:48;1.40;;;0.90;;
3916;SDS011;1973;50.518;7.318;2023-04-01T04:53:17;1.10;;;0.50;;
3916;SDS011;1973;50.518;7.318;2023-04-01T04:55:44;1.00;;;0.50;;
3916;SDS011;1973;50.518;7.318;2023-04-01T04:58:12;0.80;;;0.50;;
3916;SDS011;1973;50.518;7.318;2023-04-01T05:00:38;1.10;;;0.50;;
3916;SDS011;1973;50.518;7.318;2023-04-01T05:03:05;1.10;;;0.50;;
3916;SDS011;1973;50.518;7.318;2023-04-01T05:05:32;1.90;;;0.50;;
3916;SDS011;1973;50.518;7.318;2023-04-01T05:07:59;1.60;;;0.50;;
3916;SDS011;1973;50.518;7.318;2023-04-01T05:10:25;1.23;;;0.47;;
3916;SDS011;1973;50.518;7.318;2023-04-01T05:12:52;0.90;;;0.43;;
3916;SDS011;1973;50.518;7.318;2023-04-01T05:15:18;0.80;;;0.50;;
3916;SDS011;1973;50.518;7.318;2023-04-01T05:17:45;1.13;;;0.50;;
3916;SDS011;1973;50.518;7.318;2023-04-01T05:20:12;1.03;;;0.60;;
3916;SDS011;1973;50.518;7.318;2023-04-01T05:22:39;3.10;;;0.50;;
3916;SDS011;1973;50.518;7.318;2023-04-01T05:25:06;1.57;;;0.50;;
3916;SDS011;1973;50.518;7.318;2023-04-01T05:27:33;0.80;;;0.43;;
3916;SDS011;1973;50.518;7.318;2023-04-01T05:29:59;3.43;;;0.70;;
3916;SDS011;1973;50.518;7.318;2023-04-01T05:32:25;1.10;;;0.50;;
3916;SDS011;1973;50.518;7.318;2023-04-01T05:34:52;0.90;;;0.60;;
3916;SDS011;1973;50.518;7.318;2023-04-01T05:37:19;1.10;;;0.80;;
3916;SDS011;1973;50.518;7.318;2023-04-01T05:39:46;0.90;;;0.60;;
3916;SDS011;1973;50.518;7.318;2023-04-01T05:42:12;2.37;;;0.57;;
3916;SDS011;1973;50.518;7.318;2023-04-01T05:44:39;1.43;;;0.60;;
3916;SDS011;1973;50.518;7.318;2023-04-01T05:47:05;1.00;;;0.53;;
3916;SDS011;1973;50.518;7.318;2023-04-01T05:49:33;1.90;;;0.50;;
3916;SDS011;1973;50.518;7.318;2023-04-01T05:51:59;1.20;;;0.40;;
3916;SDS011;1973;50.518;7.318;2023-04-01T05:54:26;1.90;;;0.40;;
3916;SDS011;1973;50.518;7.318;2023-04-01T05:56:52;1.00;;;0.40;;
3916;SDS011;1973;50.518;7.318;2023-04-01T05:59:19;1.20;;;0.50;;
3916;SDS011;1973;50.518;7.318;2023-04-01T06:01:45;1.03;;;0.40;;
3916;SDS011;1973;50.518;7.318;2023-04-01T06:04:15;1.07;;;0.40;;
3916;SDS011;1973;50.518;7.318;2023-04-01T06:06:44;1.20;;;0.60;;
3916;SDS011;1973;50.518;7.318;2023-04-01T06:09:12;1.40;;;0.60;;
3916;SDS011;1973;50.518;7.318;2023-04-01T06:11:45;1.37;;;0.60;;
3916;SDS011;1973;50.518;7.318;2023-04-01T06:17:02;2.43;;;0.67;;
3916;SDS011;1973;50.518;7.318;2023-04-01T06:24:56;1.80;;;0.70;;
3916;SDS011;1973;50.518;7.318;2023-04-01T06:27:58;1.10;;;0.60;;
3916;SDS011;1973;50.518;7.318;2023-04-01T06:36:09;0.90;;;0.50;;
3916;SDS011;1973;50.518;7.318;2023-04-01T06:41:31;0.90;;;0.50;;
3916;SDS011;1973;50.518;7.318;2023-04-01T06:44:13;0.90;;;0.50;;
3916;SDS011;1973;50.518;7.318;2023-04-01T06:47:23;1.47;;;0.40;;
3916;SDS011;1973;50.518;7.318;2023-04-01T06:50:06;0.80;;;0.50;;
3916;SDS011;1973;50.518;7.318;2023-04-01T06:55:52;1.30;;;0.50;;
3916;SDS011;1973;50.518;7.318;2023-04-01T06:58:25;0.90;;;0.50;;
3916;SDS011;1973;50.518;7.318;2023-04-01T07:00:59;1.67;;;0.47;;
3916;SDS011;1973;50.518;7.318;2023-04-01T07:03:33;1.10;;;0.50;;
3916;SDS011;1973;50.518;7.318;2023-04-01T07:06:06;1.47;;;0.50;;
3916;SDS011;1973;50.518;7.318;2023-04-01T07:08:38;0.90;;;0.50;;
3916;SDS011;1973;50.518;7.318;2023-04-01T07:11:09;1.00;;;0.60;;
3916;SDS011;1973;50.518;7.318;2023-04-01T07:13:41;1.07;;;0.70;;
3916;SDS011;1973;50.518;7.318;2023-04-01T07:16:16;1.47;;;0.43;;
3916;SDS011;1973;50.518;7.318;2023-04-01T07:18:51;1.00;;;0.40;;
3916;SDS011;1973;50.518;7.318;2023-04-01T07:21:30;0.80;;;0.43;;
3916;SDS011;1973;50.518;7.318;2023-04-01T07:24:06;1.33;;;0.50;;
3916;SDS011;1973;50.518;7.318;2023-04-01T07:26:39;1.17;;;0.50;;
3916;SDS011;1973;50.518;7.318;2023-04-01T07:29:09;0.80;;;0.50;;
3916;SDS011;1973;50.518;7.318;2023-04-01T07:31:57;1.20;;;0.50;;
3916;SDS011;1973;50.518;7.318;2023-04-01T07:34:44;0.80;;;0.47;;
3916;SDS011;1973;50.518;7.318;2023-04-01T07:37:14;0.80;;;0.50;;
3916;SDS011;1973;50.518;7.318;2023-04-01T07:53:22;0.90;;;0.50;;
3916;SDS011;1973;50.518;7.318;2023-04-01T07:56:12;0.90;;;0.50;;
3916;SDS011;1973;50.518;7.318;2023-04-01T08:01:30;0.90;;;0.50;;
3916;SDS011;1973;50.518;7.318;2023-04-01T08:04:14;0.80;;;0.50;;
3916;SDS011;1973;50.518;7.318;2023-04-01T08:06:53;1.30;;;0.60;;
3916;SDS011;1973;50.518;7.318;2023-04-01T08:09:34;1.07;;;0.50;;
3916;SDS011;1973;50.518;7.318;2023-04-01T08:20:56;2.40;;;0.60;;
3916;SDS011;1973;50.518;7.318;2023-04-01T08:23:27;0.80;;;0.50;;
3916;SDS011;1973;50.518;7.318;2023-04-01T08:28:51;1.33;;;0.60;;
3916;SDS011;1973;50.518;7.318;2023-04-01T08:31:32;0.80;;;0.50;;
3916;SDS011;1973;50.518;7.318;2023-04-01T08:34:04;1.20;;;0.50;;
3916;SDS011;1973;50.518;7.318;2023-04-01T08:36:38;1.00;;;0.60;;
3916;SDS011;1973;50.518;7.318;2023-04-01T08:39:10;1.00;;;0.50;;
3916;SDS011;1973;50.518;7.318;2023-04-01T08:42:04;0.80;;;0.50;;
3916;SDS011;1973;50.518;7.318;2023-04-01T09:02:25;1.20;;;0.50;;
3916;SDS011;1973;50.518;7.318;2023-04-01T09:08:15;1.00;;;0.60;;
3916;SDS011;1973;50.518;7.318;2023-04-01T09:16:10;1.10;;;0.60;;
3916;SDS011;1973;50.518;7.318;2023-04-01T09:18:58;1.40;;;0.60;;
3916;SDS011;1973;50.518;7.318;2023-04-01T09:21:41;0.80;;;0.50;;
3916;SDS011;1973;50.518;7.318;2023-04-01T09:24:21;0.80;;;0.50;;
3916;SDS011;1973;50.518;7.318;2023-04-01T09:27:19;1.30;;;0.60;;
3916;SDS011;1973;50.518;7.318;2023-04-01T09:41:22;1.13;;;0.53;;
3916;SDS011;1973;50.518;7.318;2023-04-01T09:46:45;1.50;;;0.60;;
3916;SDS011;1973;50.518;7.318;2023-04-01T09:52:39;1.17;;;0.93;;
3916;SDS011;1973;50.518;7.318;2023-04-01T10:03:38;1.50;;;0.93;;
3916;SDS011;1973;50.518;7.318;2023-04-01T10:26:28;1.63;;;0.73;;
3916;SDS011;1973;50.518;7.318;2023-04-01T10:29:16;0.90;;;0.60;;
3916;SDS011;1973;50.518;7.318;2023-04-01T10:53:04;1.10;;;0.60;;
3916;SDS011;1973;50.518;7.318;2023-04-01T11:10:08;0.90;;;0.60;;
3916;SDS011;1973;50.518;7.318;2023-04-01T11:15:54;1.53;;;0.97;;
3916;SDS011;1973;50.518;7.318;2023-04-01T11:18:48;1.00;;;0.80;;
3916;SDS011;1973;50.518;7.318;2023-04-01T11:30:12;1.00;;;0.60;;
3916;SDS011;1973;50.518;7.318;2023-04-01T11:32:50;0.90;;;0.60;;
3916;SDS011;1973;50.518;7.318;2023-04-01T11:38:14;1.20;;;0.60;;
3916;SDS011;1973;50.518;7.318;2023-04-01T11:46:17;1.27;;;0.67;;
3916;SDS011;1973;50.518;7.318;2023-04-01T11:48:54;0.90;;;0.60;;
3916;SDS011;1973;50.518;7.318;2023-04-01T11:57:34;2.20;;;0.80;;
3916;SDS011;1973;50.518;7.318;2023-04-01T12:02:34;1.00;;;0.60;;
3916;SDS011;1973;50.518;7.318;2023-04-01T12:05:23;1.30;;;0.67;;
3916;SDS011;1973;50.518;7.318;2023-04-01T12:10:38;0.97;;;0.57;;
3916;SDS011;1973;50.518;7.318;2023-04-01T12:13:26;1.00;;;0.60;;
3916;SDS011;1973;50.518;7.318;2023-04-01T12:16:03;1.50;;;0.50;;
3916;SDS011;1973;50.518;7.318;2023-04-01T12:21:52;1.10;;;0.70;;
3916;SDS011;1973;50.518;7.318;2023-04-01T12:24:45;1.10;;;0.73;;
3916;SDS011;1973;50.518;7.318;2023-04-01T12:41:49;1.07;;;0.67;;
3916;SDS011;1973;50.518;7.318;2023-04-01T12:47:16;1.00;;;0.80;;
3916;SDS011;1973;50.518;7.318;2023-04-01T12:55:37;1.00;;;0.60;;
3916;SDS011;1973;50.518;7.318;2023-04-01T13:01:16;1.00;;;0.60;;
3916;SDS011;1973;50.518;7.318;2023-04-01T13:09:40;1.20;;;0.77;;
3916;SDS011;1973;50.518;7.318;2023-04-01T13:12:28;1.50;;;0.80;;
3916;SDS011;1973;50.518;7.318;2023-04-01T13:18:19;1.00;;;0.60;;
3916;SDS011;1973;50.518;7.318;2023-04-01T13:23:50;1.00;;;0.63;;
3916;SDS011;1973;50.518;7.318;2023-04-01T13:26:28;1.10;;;0.60;;
3916;SDS011;1973;50.518;7.318;2023-04-01T13:29:11;3.10;;;0.80;;
3916;SDS011;1973;50.518;7.318;2023-04-01T13:34:34;3.50;;;1.30;;
3916;SDS011;1973;50.518;7.318;2023-04-01T13:39:57;2.60;;;1.20;;
3916;SDS011;1973;50.518;7.318;2023-04-01T13:42:40;2.00;;;1.23;;
3916;SDS011;1973;50.518;7.318;2023-04-01T13:45:21;4.40;;;1.30;;
3916;SDS011;1973;50.518;7.318;2023-04-01T13:50:19;3.30;;;1.57;;
3916;SDS011;1973;50.518;7.318;2023-04-01T13:55:35;1.30;;;1.00;;
3916;SDS011;1973;50.518;7.318;2023-04-01T13:58:17;1.57;;;0.83;;
3916;SDS011;1973;50.518;7.318;2023-04-01T14:01:12;5.00;;;1.67;;
3916;SDS011;1973;50.518;7.318;2023-04-01T14:23:55;1.47;;;1.10;;
3916;SDS011;1973;50.518;7.318;2023-04-01T14:32:46;2.60;;;1.30;;
3916;SDS011;1973;50.518;7.318;2023-04-01T14:35:32;3.50;;;1.50;;
3916;SDS011;1973;50.518;7.318;2023-04-01T14:58:15;1.53;;;0.90;;
3916;SDS011;1973;50.518;7.318;2023-04-01T15:01:06;1.20;;;0.80;;
3916;SDS011;1973;50.518;7.318;2023-04-01T15:03:45;1.60;;;0.90;;
3916;SDS011;1973;50.518;7.318;2023-04-01T15:06:35;1.40;;;0.80;;
3916;SDS011;1973;50.518;7.318;2023-04-01T15:09:09;1.27;;;0.70;;
3916;SDS011;1973;50.518;7.318;2023-04-01T15:11:43;1.27;;;0.63;;
3916;SDS011;1973;50.518;7.318;2023-04-01T15:14:42;1.00;;;0.60;;
3916;SDS011;1973;50.518;7.318;2023-04-01T15:17:20;1.07;;;0.70;;
3916;SDS011;1973;50.518;7.318;2023-04-01T15:28:40;2.40;;;1.90;;
3916;SDS011;1973;50.518;7.318;2023-04-01T15:31:25;1.83;;;1.20;;
3916;SDS011;1973;50.518;7.318;2023-04-01T15:41:43;5.70;;;3.80;;
3916;SDS011;1973;50.518;7.318;2023-04-01T15:49:56;4.80;;;2.83;;
3916;SDS011;1973;50.518;7.318;2023-04-01T15:55:39;2.90;;;2.07;;
3916;SDS011;1973;50.518;7.318;2023-04-01T16:03:38;1.47;;;1.10;;
3916;SDS011;1973;50.518;7.318;2023-04-01T16:17:00;1.80;;;0.90;;
3916;SDS011;1973;50.518;7.318;2023-04-01T16:22:38;2.07;;;0.80;;
3916;SDS011;1973;50.518;7.318;2023-04-01T16:25:14;2.07;;;1.10;;
3916;SDS011;1973;50.518;7.318;2023-04-01T16:27:54;1.60;;;1.20;;
3916;SDS011;1973;50.518;7.318;2023-04-01T16:30:35;3.27;;;1.20;;
3916;SDS011;1973;50.518;7.318;2023-04-01T16:33:05;1.40;;;1.00;;
3916;SDS011;1973;50.518;7.318;2023-04-01T16:35:46;1.87;;;1.30;;
3916;SDS011;1973;50.518;7.318;2023-04-01T16:41:10;1.63;;;1.00;;
3916;SDS011;1973;50.518;7.318;2023-04-01T16:43:42;1.70;;;1.47;;
3916;SDS011;1973;50.518;7.318;2023-04-01T16:46:39;1.33;;;1.23;;
3916;SDS011;1973;50.518;7.318;2023-04-01T17:00:02;9.80;;;6.87;;
3916;SDS011;1973;50.518;7.318;2023-04-01T17:03:17;5.50;;;3.17;;
3916;SDS011;1973;50.518;7.318;2023-04-01T17:05:52;3.20;;;2.10;;
3916;SDS011;1973;50.518;7.318;2023-04-01T17:08:46;3.37;;;1.83;;
3916;SDS011;1973;50.518;7.318;2023-04-01T17:13:50;9.23;;;8.27;;
3916;SDS011;1973;50.518;7.318;2023-04-01T17:19:14;7.80;;;6.70;;
3916;SDS011;1973;50.518;7.318;2023-04-01T17:22:08;23.53;;;16.50;;
3916;SDS011;1973;50.518;7.318;2023-04-01T17:27:57;12.57;;;9.90;;
3916;SDS011;1973;50.518;7.318;2023-04-01T17:30:35;6.90;;;5.40;;
3916;SDS011;1973;50.518;7.318;2023-04-01T17:33:17;4.27;;;3.20;;
3916;SDS011;1973;50.518;7.318;2023-04-01T17:35:58;9.67;;;2.23;;
3916;SDS011;1973;50.518;7.318;2023-04-01T17:52:37;3.00;;;2.30;;
3916;SDS011;1973;50.518;7.318;2023-04-01T17:58:05;2.43;;;1.50;;
3916;SDS011;1973;50.518;7.318;2023-04-01T18:08:54;1.47;;;1.00;;
3916;SDS011;1973;50.518;7.318;2023-04-01T18:11:39;2.40;;;1.23;;
3916;SDS011;1973;50.518;7.318;2023-04-01T18:20:07;4.00;;;2.67;;
3916;SDS011;1973;50.518;7.318;2023-04-01T18:28:15;2.33;;;2.13;;
3916;SDS011;1973;50.518;7.318;2023-04-01T18:30:52;2.90;;;2.40;;
3916;SDS011;1973;50.518;7.318;2023-04-01T18:33:29;3.13;;;2.70;;
3916;SDS011;1973;50.518;7.318;2023-04-01T18:36:18;4.87;;;3.37;;
3916;SDS011;1973;50.518;7.318;2023-04-01T18:38:49;5.60;;;4.50;;
3916;SDS011;1973;50.518;7.318;2023-04-01T18:43:59;9.90;;;6.37;;
3916;SDS011;1973;50.518;7.318;2023-04-01T19:00:52;8.63;;;7.83;;
3916;SDS011;1973;50.518;7.318;2023-04-01T19:06:20;8.10;;;7.40;;
3916;SDS011;1973;50.518;7.318;2023-04-01T19:12:05;6.83;;;6.13;;
3916;SDS011;1973;50.518;7.318;2023-04-01T19:17:45;4.30;;;3.90;;
3916;SDS011;1973;50.518;7.318;2023-04-01T19:20:24;2.80;;;2.60;;
3916;SDS011;1973;50.518;7.318;2023-04-01T19:25:46;2.97;;;2.40;;
3916;SDS011;1973;50.518;7.318;2023-04-01T19:31:34;2.40;;;2.20;;
3916;SDS011;1973;50.518;7.318;2023-04-01T19:36:55;3.87;;;3.13;;
3916;SDS011;1973;50.518;7.318;2023-04-01T19:39:48;6.20;;;3.40;;
3916;SDS011;1973;50.518;7.318;2023-04-01T19:47:46;4.37;;;3.97;;
3916;SDS011;1973;50.518;7.318;2023-04-01T19:50:34;4.83;;;3.60;;
3916;SDS011;1973;50.518;7.318;2023-04-01T19:53:46;3.60;;;2.93;;
3916;SDS011;1973;50.518;7.318;2023-04-01T19:56:18;6.87;;;4.40;;
3916;SDS011;1973;50.518;7.318;2023-04-01T20:07:27;8.10;;;5.50;;
3916;SDS011;1973;50.518;7.318;2023-04-01T20:10:08;5.67;;;4.53;;
3916;SDS011;1973;50.518;7.318;2023-04-01T20:13:00;6.33;;;3.60;;
3916;SDS011;1973;50.518;7.318;2023-04-01T20:15:39;7.60;;;5.47;;
3916;SDS011;1973;50.518;7.318;2023-04-01T20:18:19;5.40;;;4.00;;
3916;SDS011;1973;50.518;7.318;2023-04-01T20:20:56;4.53;;;3.67;;
3916;SDS011;1973;50.518;7.318;2023-04-01T20:23:47;4.77;;;3.13;;
3916;SDS011;1973;50.518;7.318;2023-04-01T20:26:23;3.50;;;2.70;;
3916;SDS011;1973;50.518;7.318;2023-04-01T20:31:40;2.67;;;1.90;;
3916;SDS011;1973;50.518;7.318;2023-04-01T20:42:28;2.03;;;1.50;;
3916;SDS011;1973;50.518;7.318;2023-04-01T20:45:14;1.83;;;1.30;;
3916;SDS011;1973;50.518;7.318;2023-04-01T20:50:40;1.70;;;1.30;;
3916;SDS011;1973;50.518;7.318;2023-04-01T20:56:21;1.70;;;1.60;;
3916;SDS011;1973;50.518;7.318;2023-04-01T21:04:27;2.13;;;1.67;;
3916;SDS011;1973;50.518;7.318;2023-04-01T21:09:55;3.07;;;2.57;;
3916;SDS011;1973;50.518;7.318;2023-04-01T21:15:17;1.93;;;1.47;;
3916;SDS011;1973;50.518;7.318;2023-04-01T21:18:01;1.80;;;1.50;;
3916;SDS011;1973;50.518;7.318;2023-04-01T21:32:27;1.50;;;1.37;;
3916;SDS011;1973;50.518;7.318;2023-04-01T21:43:54;5.67;;;4.03;;
3916;SDS011;1973;50.518;7.318;2023-04-01T21:52:05;5.10;;;2.60;;
3916;SDS011;1973;50.518;7.318;2023-04-01T22:00:14;2.90;;;2.20;;
3916;SDS011;1973;50.518;7.318;2023-04-01T22:13:47;2.90;;;1.50;;
3916;SDS011;1973;50.518;7.318;2023-04-01T22:33:07;2.27;;;1.57;;
3916;SDS011;1973;50.518;7.318;2023-04-01T22:35:52;2.67;;;1.47;;
3916;SDS011;1973;50.518;7.318;2023-04-01T22:38:34;1.70;;;1.27;;
3916;SDS011;1973;50.518;7.318;2023-04-01T22:41:08;2.10;;;1.43;;
3916;SDS011;1973;50.518;7.318;2023-04-01T22:43:47;2.60;;;1.80;;
3916;SDS011;1973;50.518;7.318;2023-04-01T22:46:26;2.23;;;1.40;;
3916;SDS011;1973;50.518;7.318;2023-04-01T22:52:03;1.77;;;0.90;;
3916;SDS011;1973;50.518;7.318;2023-04-01T22:54:43;1.30;;;1.00;;
3916;SDS011;1973;50.518;7.318;2023-04-01T22:57:16;2.67;;;1.17;;
3916;SDS011;1973;50.518;7.318;2023-04-01T23:02:30;1.60;;;1.30;;
3916;SDS011;1973;50.518;7.318;2023-04-01T23:05:00;1.70;;;1.23;;
3916;SDS011;1973;50.518;7.318;2023-04-01T23:07:50;1.30;;;1.13;;
3916;SDS011;1973;50.518;7.318;2023-04-01T23:12:49;1.20;;;0.90;;
3916;SDS011;1973;50.518;7.318;2023-04-01T23:15:18;1.30;;;0.90;;
3916;SDS011;1973;50.518;7.318;2023-04-01T23:23:26;2.10;;;1.10;;
3916;SDS011;1973;50.518;7.318;2023-04-01T23:29:07;2.00;;;1.00;;
3916;SDS011;1973;50.518;7.318;2023-04-01T23:31:47;1.30;;;1.00;;
3916;SDS011;1973;50.518;7.318;2023-04-01T23:34:23;1.20;;;1.10;;
3916;SDS011;1973;50.518;7.318;2023-04-01T23:36:53;2.03;;;1.00;;
3916;SDS011;1973;50.518;7.318;2023-04-01T23:42:19;2.30;;;1.10;;
3916;SDS011;1973;50.518;7.318;2023-04-01T23:44:53;1.40;;;0.87;;
3916;SDS011;1973;50.518;7.318;2023-04-01T23:47:23;1.10;;;0.80;;
3916;SDS011;1973;50.518;7.318;2023-04-01T23:49:54;2.13;;;1.00;;
3916;SDS011;1973;50.518;7.318;2023-04-01T23:52:25;2.03;;;1.40;;
3916;SDS011;1973;50.518;7.318;2023-04-01T23:54:57;1.20;;;1.00;;
3916;SDS011;1973;50.518;7.318;2023-04-01T23:57:30;1.30;;;1.00;;
